Aireys Inlet, Victoria

4:28 AM EST on July 27, 2014 (GMT +1000)
IVICTORI201 Elev 36 ft | 38.55 °S, 143.99 °E | Change Station

Current weather conditions updated 11 minutes ago

Clear
Clear
48.5 °F
Feels Like 48 °F
N
2.0
Wind Variable Wind from North
Gusts 7.0 mph

Today is forecast to be Warmer than yesterday.

Today
High -- | Low -- °F
--% Chance of Precip.
Yesterday
High -- | Low -- °F
Precip. -- in
7:30 AM 5:30 PM
Waning Crescent, 0% visible
Pressure 30.24 in
Visibility 6.2 miles
Clouds
Windchill 48 °F
Dew Point 46 °F
Humidity 90%
Rainfall 0.00 in
Snow Depth Not available.
UV Not available.
Pollen Not available.
Air Quality Not available.
Flu Activity Not available.
METAR YMAV 261800Z AUTO 36003KT 9999 // NCD 03/03 Q1024

More Conditions Fewer Conditions

Pressure 30.24 in
Visibility 6.2 miles
Clouds
Windchill 48 °F
Dew Point 46 °F
Humidity 90%
Rainfall 0.00 in
Snow Depth Not available.
UV Not available.
Pollen Not available.
Air Quality Not available.
Flu Activity Not available.
METAR YMAV 261800Z AUTO 36003KT 9999 // NCD 03/03 Q1024

More Conditions Fewer Conditions

10-Day Weather Forecast

Almanac

Astronomy

Jul. 27, 2014 Rise Set
Actual Time 7:30 AM EST 5:30 PM EST
Civil Twilight 7:01 AM EST 5:59 PM EST
Nautical Twilight 6:29 AM EST 6:31 PM EST
Astronomical Twilight 5:57 AM EST 7:02 PM EST
Moon 7:10 AM EST (7/27) 5:57 PM EST (7/27)
Length of Visible Light 10h 57m
Length of Day
10h 00m
Tomorrow will be 1m 39s longer.
Waning Crescent, 0% of the Moon is Illuminated
Jul 26
Waning Crescent
Jul 26
New
Aug 3
First Quarter
Aug 10
Full
Aug 17
Last Quarter

Yesterday's Extremes

Country Highs Country Lows

Community

WunderPhotos

Upload Photos

1,737,654 photos uploaded!

Nearby

Snow Depth

Not available.

Earthquake Activity

City Distance Mag. Time & Date
No recent earthquake activity has been reported nearby.
Minimum magnitude displayed is 2.5.

Coastal Water Temperatures

Place Temperature
No Stations Reporting

Nearby Weather Stations

Station Location Temp. Windchill Dew Point Humidity Wind Precip. Elev Updated Type
Lorne 48.5 °F 48 °F 46 °F 90% North  at  2.0 mph 0.00 in / hr 36 ft 4:17 AM EST Normal
Lorne 44.5 °F 44 °F 43 °F 95% SSE  at  0.0 mph 0.00 in / hr 295 ft 4:17 AM EST Normal
Moriac 37.1 °F 33 °F 37 °F 98% West  at  5.0 mph 0.00 in / hr 338 ft 4:28 AM EST Rapid Fire
Thomson, Geelong, Thomson 44.2 °F 44 °F 41 °F 87% WNW  at  1.1 mph 0.00 in / hr 66 ft 4:28 AM EST Rapid Fire
Geelong, Herne Hill 40.5 °F 40 °F 40 °F 99% West  at  0.0 mph 0.00 in / hr 190 ft 4:28 AM EST Rapid Fire

Show More Stations Show Fewer Stations